Time;durP1;ratioP1;P1;durP2;ratioP2;P2;SDS_P1;SDS_P2;PMS_P1;PMS_P2;Temp;Humidity;BMP_temperature;BMP_pressure;BME280_temperature;BME280_humidity;BME280_pressure;Samples;Min_cycle;Max_cycle;Signal;HPM_P1;HPM_P2
2022/02/06 00:00:34;;;;;;;;;;;3.00;99.90;;;;;;4933725;28;19956;-68
2022/02/06 00:03:02;;;;;;;;;;;3.00;99.90;;;;;;4930036;28;20002;-67
2022/02/06 00:05:29;;;;;;;;;;;3.00;99.90;;;;;;4929931;28;19930;-67
2022/02/06 00:07:57;;;;;;;;;;;3.10;99.90;;;;;;4933253;28;19940;-68
2022/02/06 00:10:24;;;;;;;;;;;3.10;99.90;;;;;;4933189;28;19949;-65
2022/02/06 00:12:50;;;;;;;;;;;3.10;99.90;;;;;;4933622;28;19926;-65
2022/02/06 00:15:19;;;;;;;;;;;3.20;99.90;;;;;;4931980;28;20528;-65
2022/02/06 00:17:47;;;;;;;;;;;3.20;99.90;;;;;;4935701;28;19930;-65
2022/02/06 00:20:15;;;;;;;;;;;3.30;99.90;;;;;;4934437;28;20121;-67
2022/02/06 00:22:46;;;;;;;;;;;3.20;99.90;;;;;;4936790;28;20025;-72
2022/02/06 00:30:25;;;;;;;;;;;3.20;99.90;;;;;;4935685;28;19985;-67
2022/02/06 00:33:04;;;;;;;;;;;3.30;99.90;;;;;;4932392;28;19996;-66
2022/02/06 00:43:24;;;;;;;;;;;3.30;99.90;;;;;;4933655;28;20500;-63
2022/02/06 00:45:51;;;;;;;;;;;3.30;99.90;;;;;;4933063;28;20060;-64
2022/02/06 00:48:24;;;;;;;;;;;3.30;99.90;;;;;;4933699;28;21461;-65
2022/02/06 00:51:03;;;;;;;;;;;3.30;99.90;;;;;;4933437;28;19946;-67
2022/02/06 00:53:29;;;;;;;;;;;3.30;99.90;;;;;;4931692;28;20377;-68
2022/02/06 00:55:57;;;;;;;;;;;3.30;99.90;;;;;;4934982;28;19927;-66
2022/02/06 00:58:24;;;;;;;;;;;3.30;99.90;;;;;;4933293;28;20281;-65
2022/02/06 01:00:50;;;;;;;;;;;3.30;99.90;;;;;;4931776;28;19938;-67
2022/02/06 01:03:17;;;;;;;;;;;3.30;99.90;;;;;;4931598;28;19985;-67
2022/02/06 01:05:53;;;;;;;;;;;3.40;99.90;;;;;;4934379;28;21525;-68
2022/02/06 01:08:20;;;;;;;;;;;3.30;99.90;;;;;;4935271;28;19926;-66
2022/02/06 01:10:47;;;;;;;;;;;3.40;99.90;;;;;;4930810;28;20392;-66
2022/02/06 01:16:11;;;;;;;;;;;3.40;99.90;;;;;;4935950;28;19931;-68
2022/02/06 01:18:44;;;;;;;;;;;3.40;99.90;;;;;;4937729;28;20060;-68
2022/02/06 01:21:33;;;;;;;;;;;3.40;99.90;;;;;;4935239;28;19936;-67
2022/02/06 01:24:07;;;;;;;;;;;3.40;99.90;;;;;;4938566;28;20049;-65
2022/02/06 01:26:45;;;;;;;;;;;3.40;99.90;;;;;;4935184;28;19937;-64
2022/02/06 01:34:18;;;;;;;;;;;3.40;99.90;;;;;;4935905;28;20058;-68
2022/02/06 01:42:37;;;;;;;;;;;3.40;99.90;;;;;;4921408;28;19926;-66
2022/02/06 02:12:18;;;;;;;;;;;3.40;99.90;;;;;;4943347;28;19969;-65
2022/02/06 02:17:36;;;;;;;;;;;3.40;99.90;;;;;;4944586;28;20345;-63
2022/02/06 02:20:35;;;;;;;;;;;3.40;99.90;;;;;;4946873;28;20418;-64
2022/02/06 02:26:22;;;;;;;;;;;3.40;99.90;;;;;;4947438;28;19966;-64
2022/02/06 02:49:39;;;;;;;;;;;3.30;99.90;;;;;;4938795;28;20030;-63
2022/02/06 02:52:13;;;;;;;;;;;3.30;99.90;;;;;;4944741;28;19929;-63
2022/02/06 02:54:42;;;;;;;;;;;3.30;99.90;;;;;;4938903;28;20645;-69
2022/02/06 02:57:21;;;;;;;;;;;3.30;99.90;;;;;;4948690;28;20013;-63
2022/02/06 03:02:18;;;;;;;;;;;3.30;99.90;;;;;;4954320;28;19934;-63
2022/02/06 03:04:50;;;;;;;;;;;3.30;99.90;;;;;;4946761;28;19930;-64
2022/02/06 03:07:17;;;;;;;;;;;3.30;99.90;;;;;;4955363;28;20311;-63
2022/02/06 03:09:45;;;;;;;;;;;3.30;99.90;;;;;;4952842;28;19926;-67
2022/02/06 03:12:15;;;;;;;;;;;3.30;99.90;;;;;;4947017;28;20084;-65
2022/02/06 03:14:48;;;;;;;;;;;3.40;99.90;;;;;;4947657;28;19973;-67
2022/02/06 03:17:31;;;;;;;;;;;3.30;99.90;;;;;;4939697;28;20361;-66
2022/02/06 03:20:06;;;;;;;;;;;3.40;99.90;;;;;;4943894;28;20483;-63
2022/02/06 03:22:49;;;;;;;;;;;3.40;99.90;;;;;;4943960;28;19922;-64
2022/02/06 03:25:20;;;;;;;;;;;3.40;99.90;;;;;;4935579;28;19926;-63
2022/02/06 03:27:47;;;;;;;;;;;3.40;99.90;;;;;;4938563;28;19950;-65
2022/02/06 03:30:14;;;;;;;;;;;3.40;99.90;;;;;;4934183;28;20398;-67
2022/02/06 03:32:41;;;;;;;;;;;3.40;99.90;;;;;;4942740;28;19934;-68
2022/02/06 03:35:08;;;;;;;;;;;3.40;99.90;;;;;;4938971;28;20028;-62
2022/02/06 03:37:35;;;;;;;;;;;3.40;99.90;;;;;;4934959;28;19954;-66
2022/02/06 03:40:05;;;;;;;;;;;3.40;99.90;;;;;;4933652;28;20423;-65
2022/02/06 03:42:36;;;;;;;;;;;3.40;99.90;;;;;;4902212;28;20064;-66
2022/02/06 03:45:21;;;;;;;;;;;3.30;99.90;;;;;;1802158;28;10022100;-63
2022/02/06 03:47:55;;;;;;;;;;;3.40;99.90;;;;;;4601822;28;10000563;-63
2022/02/06 03:50:31;;;;;;;;;;;3.40;99.90;;;;;;4934066;28;19950;-63
2022/02/06 03:52:58;;;;;;;;;;;3.40;99.90;;;;;;4945577;28;19942;-63
2022/02/06 03:55:26;;;;;;;;;;;3.40;99.90;;;;;;4941357;28;19923;-65
2022/02/06 03:57:53;;;;;;;;;;;3.40;99.90;;;;;;4944541;28;19969;-65
2022/02/06 04:00:23;;;;;;;;;;;3.40;99.90;;;;;;4942583;28;19957;-66
2022/02/06 04:02:52;;;;;;;;;;;3.40;99.90;;;;;;4944685;28;20354;-63
2022/02/06 04:05:19;;;;;;;;;;;3.40;99.90;;;;;;4941660;28;20026;-63
2022/02/06 04:07:47;;;;;;;;;;;3.40;99.90;;;;;;4947258;28;19926;-63
2022/02/06 04:10:15;;;;;;;;;;;3.40;99.90;;;;;;4942817;28;20005;-64
2022/02/06 04:12:44;;;;;;;;;;;3.40;99.90;;;;;;4937792;28;20351;-64
2022/02/06 04:15:19;;;;;;;;;;;3.40;99.90;;;;;;4942040;28;19923;-68
2022/02/06 04:17:51;;;;;;;;;;;3.40;99.90;;;;;;4941862;28;19926;-65
2022/02/06 04:20:18;;;;;;;;;;;3.40;99.90;;;;;;4943002;28;19922;-63
2022/02/06 04:22:45;;;;;;;;;;;3.40;99.90;;;;;;4943163;28;19929;-68
2022/02/06 04:25:11;;;;;;;;;;;3.40;99.90;;;;;;4942456;28;19928;-64
2022/02/06 04:27:38;;;;;;;;;;;3.40;99.90;;;;;;4941433;28;19923;-64
2022/02/06 04:30:05;;;;;;;;;;;3.40;99.90;;;;;;4944294;28;19957;-68
2022/02/06 04:32:33;;;;;;;;;;;3.40;99.90;;;;;;4941432;28;19993;-64
2022/02/06 04:35:00;;;;;;;;;;;3.40;99.90;;;;;;4945080;28;20009;-63
2022/02/06 04:37:44;;;;;;;;;;;3.40;99.90;;;;;;4942305;28;19954;-66
2022/02/06 05:12:55;;;;;;;;;;;3.50;99.90;;;;;;4939832;28;19962;-65
2022/02/06 05:18:56;;;;;;;;;;;3.50;99.90;;;;;;4937106;28;19962;-65
2022/02/06 05:30:54;;;;;;;;;;;3.60;99.90;;;;;;4939655;28;19977;-63
2022/02/06 05:33:21;;;;;;;;;;;3.60;99.90;;;;;;4943331;28;19923;-66
2022/02/06 05:35:48;;;;;;;;;;;3.50;99.90;;;;;;4942009;28;20014;-63
2022/02/06 05:38:16;;;;;;;;;;;3.60;99.90;;;;;;4933156;28;19926;-64
2022/02/06 05:40:43;;;;;;;;;;;3.60;99.90;;;;;;4941000;28;19923;-70
2022/02/06 05:43:10;;;;;;;;;;;3.60;99.90;;;;;;4862947;28;20527;-64
2022/02/06 05:45:37;;;;;;;;;;;3.70;99.90;;;;;;961941;28;10002137;-63
2022/02/06 05:48:04;;;;;;;;;;;3.60;99.90;;;;;;4938699;28;19977;-66
2022/02/06 05:50:32;;;;;;;;;;;3.60;99.90;;;;;;4944463;28;20099;-63
2022/02/06 05:52:58;;;;;;;;;;;3.70;99.90;;;;;;4941458;28;19953;-65
2022/02/06 05:55:29;;;;;;;;;;;3.70;99.90;;;;;;4944587;28;19926;-64
2022/02/06 05:57:56;;;;;;;;;;;3.80;99.90;;;;;;4939943;28;20013;-63
2022/02/06 06:00:23;;;;;;;;;;;3.80;99.90;;;;;;4936687;28;20472;-64
2022/02/06 06:02:49;;;;;;;;;;;3.80;99.90;;;;;;4933890;28;19922;-64
2022/02/06 06:05:16;;;;;;;;;;;3.90;99.90;;;;;;4945600;28;20002;-63
2022/02/06 06:07:43;;;;;;;;;;;3.80;99.90;;;;;;4942325;28;19946;-69
2022/02/06 06:10:10;;;;;;;;;;;3.90;99.90;;;;;;4942144;28;19981;-66
2022/02/06 06:12:38;;;;;;;;;;;3.90;99.90;;;;;;4944497;28;20029;-64
2022/02/06 06:15:06;;;;;;;;;;;3.90;99.90;;;;;;4937024;28;20014;-69
2022/02/06 06:17:37;;;;;;;;;;;3.90;99.90;;;;;;4942950;28;20025;-64
2022/02/06 06:20:08;;;;;;;;;;;3.90;99.90;;;;;;4939062;28;20479;-64
2022/02/06 06:22:35;;;;;;;;;;;3.90;99.90;;;;;;4940965;28;19992;-67
2022/02/06 06:25:03;;;;;;;;;;;3.90;99.90;;;;;;4936064;28;19933;-63
2022/02/06 06:27:30;;;;;;;;;;;3.90;99.90;;;;;;4934711;28;20266;-66
2022/02/06 06:29:57;;;;;;;;;;;3.90;99.90;;;;;;4934651;28;20990;-64
2022/02/06 06:32:24;;;;;;;;;;;4.00;99.90;;;;;;4932285;28;20021;-66
2022/02/06 06:34:52;;;;;;;;;;;4.00;99.90;;;;;;4933829;28;19926;-65
2022/02/06 06:37:20;;;;;;;;;;;4.00;99.90;;;;;;4931851;28;19931;-66
2022/02/06 06:39:48;;;;;;;;;;;4.00;99.90;;;;;;4932226;28;19930;-66
2022/02/06 06:42:20;;;;;;;;;;;4.00;99.90;;;;;;4933042;28;21131;-65
2022/02/06 06:44:46;;;;;;;;;;;4.00;99.90;;;;;;4932724;28;19930;-63
2022/02/06 06:47:13;;;;;;;;;;;4.00;99.90;;;;;;4933475;28;20065;-66
2022/02/06 06:49:40;;;;;;;;;;;4.00;99.90;;;;;;4934863;28;19930;-67
2022/02/06 06:52:08;;;;;;;;;;;4.00;99.90;;;;;;4932289;28;19973;-64
2022/02/06 06:54:48;;;;;;;;;;;4.00;99.90;;;;;;4934239;28;20210;-65
2022/02/06 06:57:22;;;;;;;;;;;4.10;99.90;;;;;;4932240;28;19934;-68
2022/02/06 07:02:28;;;;;;;;;;;4.10;99.90;;;;;;4932312;28;19930;-67
2022/02/06 07:04:57;;;;;;;;;;;4.10;99.90;;;;;;4932471;28;19931;-64
2022/02/06 07:07:25;;;;;;;;;;;4.10;99.90;;;;;;4931999;28;21039;-66
2022/02/06 07:09:52;;;;;;;;;;;4.10;99.90;;;;;;4933865;28;20085;-64
2022/02/06 07:12:19;;;;;;;;;;;4.20;99.90;;;;;;4932594;28;20486;-68
2022/02/06 07:14:48;;;;;;;;;;;4.10;99.90;;;;;;4933350;28;19930;-65
2022/02/06 07:17:15;;;;;;;;;;;4.20;99.90;;;;;;4933727;28;19930;-68
2022/02/06 07:19:42;;;;;;;;;;;4.20;99.90;;;;;;4934284;28;19930;-65
2022/02/06 07:22:13;;;;;;;;;;;4.20;99.90;;;;;;4933605;28;19937;-65
2022/02/06 07:24:40;;;;;;;;;;;4.20;99.90;;;;;;4935290;28;19969;-67
2022/02/06 07:27:19;;;;;;;;;;;4.20;99.90;;;;;;4929971;28;20543;-64
2022/02/06 07:29:46;;;;;;;;;;;4.20;99.90;;;;;;4934632;28;20033;-64
2022/02/06 07:32:13;;;;;;;;;;;4.20;99.90;;;;;;4959562;28;20601;-67
2022/02/06 07:34:40;;;;;;;;;;;4.20;99.90;;;;;;4934273;28;19934;-67
2022/02/06 07:37:07;;;;;;;;;;;4.20;99.90;;;;;;4930386;28;19930;-68
2022/02/06 07:39:34;;;;;;;;;;;4.20;99.90;;;;;;4934459;28;20033;-65
2022/02/06 07:42:01;;;;;;;;;;;4.20;99.90;;;;;;4935941;28;19930;-64
2022/02/06 07:44:31;;;;;;;;;;;4.20;99.90;;;;;;4950488;28;19937;-64
2022/02/06 07:47:14;;;;;;;;;;;4.20;99.90;;;;;;3268746;28;10020701;-66
2022/02/06 07:49:44;;;;;;;;;;;4.30;99.90;;;;;;3913690;28;10002231;-69
2022/02/06 07:52:12;;;;;;;;;;;4.20;99.90;;;;;;4934697;28;19996;-66
2022/02/06 07:54:38;;;;;;;;;;;4.30;99.90;;;;;;4934146;28;20013;-66
2022/02/06 07:57:05;;;;;;;;;;;4.30;99.90;;;;;;4930915;28;20041;-68
2022/02/06 07:59:32;;;;;;;;;;;4.30;99.90;;;;;;4936440;28;20033;-66
2022/02/06 08:01:59;;;;;;;;;;;4.30;99.90;;;;;;4934135;28;19930;-67
2022/02/06 08:04:28;;;;;;;;;;;4.30;99.90;;;;;;4936250;28;20020;-66
2022/02/06 08:06:55;;;;;;;;;;;4.30;99.90;;;;;;4931609;28;19952;-69
2022/02/06 08:09:49;;;;;;;;;;;4.30;99.90;;;;;;4958749;28;19931;-64
2022/02/06 08:12:12;;;;;;;;;;;4.30;99.90;;;;;;4932675;28;19938;-63
2022/02/06 08:14:55;;;;;;;;;;;4.30;99.90;;;;;;4935531;28;19944;-68
2022/02/06 08:17:21;;;;;;;;;;;4.40;99.90;;;;;;4929911;28;19992;-67
2022/02/06 08:19:48;;;;;;;;;;;4.40;99.90;;;;;;4936722;28;19985;-65
2022/02/06 08:22:15;;;;;;;;;;;4.40;99.90;;;;;;4935194;28;19927;-66
2022/02/06 08:24:43;;;;;;;;;;;4.40;99.90;;;;;;4933113;28;19939;-67
2022/02/06 08:27:10;;;;;;;;;;;4.40;99.90;;;;;;4933115;28;19998;-67
2022/02/06 08:29:41;;;;;;;;;;;4.40;99.90;;;;;;4934475;28;19931;-64
2022/02/06 08:32:08;;;;;;;;;;;4.30;99.90;;;;;;4935942;28;19931;-64
2022/02/06 08:34:35;;;;;;;;;;;4.30;99.90;;;;;;4935141;28;19949;-65
2022/02/06 08:37:05;;;;;;;;;;;4.40;99.90;;;;;;4933222;28;19942;-67
2022/02/06 08:39:33;;;;;;;;;;;4.40;99.90;;;;;;4931808;28;20581;-66
2022/02/06 08:42:01;;;;;;;;;;;4.40;99.90;;;;;;4937127;28;19973;-66
2022/02/06 08:44:28;;;;;;;;;;;4.40;99.90;;;;;;4933507;28;20257;-68
2022/02/06 08:46:55;;;;;;;;;;;4.40;99.90;;;;;;4933732;28;19949;-65
2022/02/06 08:49:23;;;;;;;;;;;4.40;99.90;;;;;;4933159;28;20029;-66
2022/02/06 08:51:51;;;;;;;;;;;4.40;99.90;;;;;;4933765;28;20746;-66
2022/02/06 08:54:18;;;;;;;;;;;4.40;99.90;;;;;;4932012;28;19983;-71
2022/02/06 08:57:13;;;;;;;;;;;4.40;99.90;;;;;;4931477;28;20017;-69
2022/02/06 08:59:40;;;;;;;;;;;4.50;99.90;;;;;;4933926;28;20364;-69
2022/02/06 09:02:07;;;;;;;;;;;4.50;99.90;;;;;;4933830;28;19930;-68
2022/02/06 09:04:33;;;;;;;;;;;4.50;99.90;;;;;;4933867;28;20189;-67
2022/02/06 09:07:02;;;;;;;;;;;4.50;99.90;;;;;;4932417;28;21301;-66
2022/02/06 09:09:29;;;;;;;;;;;4.50;99.90;;;;;;4933796;28;19931;-68
2022/02/06 09:11:57;;;;;;;;;;;4.50;99.90;;;;;;4960684;28;19930;-64
2022/02/06 09:14:24;;;;;;;;;;;4.50;99.90;;;;;;4933236;28;19930;-67
2022/02/06 09:16:52;;;;;;;;;;;4.50;99.90;;;;;;4930866;28;20701;-64
2022/02/06 09:19:19;;;;;;;;;;;4.40;99.90;;;;;;4930989;28;19948;-69
2022/02/06 09:21:45;;;;;;;;;;;4.40;99.90;;;;;;4933245;28;20025;-67
2022/02/06 09:24:13;;;;;;;;;;;4.40;99.90;;;;;;4931820;28;19958;-68
2022/02/06 09:26:40;;;;;;;;;;;4.40;99.90;;;;;;4930490;28;19966;-71
2022/02/06 09:29:08;;;;;;;;;;;4.30;99.90;;;;;;4929807;28;20053;-63
2022/02/06 09:31:36;;;;;;;;;;;4.30;99.90;;;;;;4932631;28;19989;-64
2022/02/06 09:36:30;;;;;;;;;;;4.20;99.90;;;;;;4934422;28;19981;-66
2022/02/06 09:38:57;;;;;;;;;;;4.20;99.90;;;;;;4933616;28;19930;-66
2022/02/06 09:41:24;;;;;;;;;;;4.10;99.90;;;;;;4935334;28;19934;-67
2022/02/06 09:43:53;;;;;;;;;;;4.10;99.90;;;;;;4935610;28;20070;-68
2022/02/06 09:46:34;;;;;;;;;;;4.10;99.90;;;;;;4760376;28;10000549;-66
2022/02/06 09:49:05;;;;;;;;;;;4.10;99.90;;;;;;677365;28;10002020;-67
2022/02/06 09:51:32;;;;;;;;;;;4.10;99.90;;;;;;4934644;28;19937;-67
2022/02/06 09:54:00;;;;;;;;;;;4.10;99.90;;;;;;4935801;28;19931;-68
2022/02/06 09:56:28;;;;;;;;;;;4.10;99.90;;;;;;4934250;28;20351;-68
2022/02/06 09:58:59;;;;;;;;;;;4.10;99.90;;;;;;4935586;28;20036;-65
2022/02/06 10:01:27;;;;;;;;;;;4.10;99.90;;;;;;4931893;28;20056;-69
2022/02/06 10:04:07;;;;;;;;;;;4.10;99.90;;;;;;4936958;28;21429;-63
2022/02/06 10:06:43;;;;;;;;;;;4.10;99.90;;;;;;4935017;28;20020;-67
2022/02/06 10:09:13;;;;;;;;;;;4.10;99.90;;;;;;4934702;28;20065;-67
2022/02/06 10:11:44;;;;;;;;;;;4.10;99.90;;;;;;4935314;28;20045;-66
2022/02/06 10:14:11;;;;;;;;;;;4.10;99.90;;;;;;4937685;28;24376;-65
2022/02/06 10:16:39;;;;;;;;;;;4.10;99.90;;;;;;4932962;28;19931;-71
2022/02/06 10:19:06;;;;;;;;;;;4.10;99.90;;;;;;4935855;28;19930;-65
2022/02/06 10:21:35;;;;;;;;;;;4.10;99.90;;;;;;4934604;28;20420;-65
2022/02/06 10:24:09;;;;;;;;;;;4.10;99.90;;;;;;4937434;28;19937;-65
2022/02/06 10:29:22;;;;;;;;;;;4.00;99.90;;;;;;4934647;28;20010;-64
2022/02/06 10:32:00;;;;;;;;;;;4.00;99.90;;;;;;4935113;28;20072;-65
2022/02/06 10:34:28;;;;;;;;;;;4.00;99.90;;;;;;4934849;28;19930;-68
2022/02/06 10:37:14;;;;;;;;;;;4.00;99.90;;;;;;4931595;28;20024;-65
2022/02/06 10:39:53;;;;;;;;;;;4.00;99.90;;;;;;4934286;28;19930;-68
2022/02/06 10:42:22;;;;;;;;;;;4.00;99.90;;;;;;4933410;28;20459;-69
2022/02/06 10:44:49;;;;;;;;;;;4.00;99.90;;;;;;4930416;28;20109;-63
2022/02/06 10:47:29;;;;;;;;;;;4.10;99.90;;;;;;4934746;28;19938;-70
2022/02/06 10:50:04;;;;;;;;;;;4.00;99.90;;;;;;4935683;28;20288;-65
2022/02/06 10:52:31;;;;;;;;;;;4.10;99.90;;;;;;4934119;28;20359;-68
2022/02/06 10:55:00;;;;;;;;;;;4.10;99.90;;;;;;4931388;28;19945;-66
2022/02/06 10:57:28;;;;;;;;;;;4.10;99.90;;;;;;4933828;28;19942;-67
2022/02/06 10:59:56;;;;;;;;;;;4.20;99.90;;;;;;4937207;28;19953;-70
2022/02/06 11:02:23;;;;;;;;;;;4.20;99.90;;;;;;4933790;28;20049;-65
2022/02/06 11:05:19;;;;;;;;;;;4.30;99.90;;;;;;4934940;28;19938;-64
2022/02/06 11:07:54;;;;;;;;;;;4.30;99.90;;;;;;4936087;28;19940;-63
2022/02/06 11:10:22;;;;;;;;;;;4.30;99.90;;;;;;4933326;28;19980;-66
2022/02/06 11:12:50;;;;;;;;;;;4.30;99.90;;;;;;4932005;28;19931;-68
2022/02/06 11:15:26;;;;;;;;;;;4.20;99.90;;;;;;4936207;28;21484;-64
2022/02/06 11:18:05;;;;;;;;;;;4.20;99.90;;;;;;4931731;28;20058;-71
2022/02/06 11:20:33;;;;;;;;;;;4.20;99.90;;;;;;4934170;28;19970;-66
2022/02/06 11:23:03;;;;;;;;;;;4.10;99.90;;;;;;4931609;28;21210;-67
2022/02/06 11:25:31;;;;;;;;;;;4.10;99.90;;;;;;4934013;28;20291;-71
2022/02/06 11:27:59;;;;;;;;;;;4.10;99.90;;;;;;4931737;28;19930;-68
2022/02/06 11:30:26;;;;;;;;;;;4.10;99.90;;;;;;4932830;28;20029;-65
2022/02/06 11:32:54;;;;;;;;;;;4.10;99.90;;;;;;4931636;28;19930;-63
2022/02/06 11:35:24;;;;;;;;;;;4.00;99.90;;;;;;4934850;28;20586;-66
2022/02/06 11:46:21;;;;;;;;;;;4.10;99.90;;;;;;1356701;28;10002004;-69
2022/02/06 11:48:49;;;;;;;;;;;4.10;99.90;;;;;;4932091;28;19934;-66
2022/02/06 11:51:20;;;;;;;;;;;4.10;99.90;;;;;;4933370;28;19930;-67
2022/02/06 11:53:46;;;;;;;;;;;4.10;99.90;;;;;;4931142;28;20025;-64
2022/02/06 11:56:33;;;;;;;;;;;4.10;99.90;;;;;;4934700;28;20061;-66
2022/02/06 11:59:06;;;;;;;;;;;4.10;99.90;;;;;;4930348;28;20024;-66
2022/02/06 12:01:33;;;;;;;;;;;4.10;99.90;;;;;;4932019;28;20012;-65
2022/02/06 12:04:19;;;;;;;;;;;4.20;99.90;;;;;;4932105;28;19936;-65
2022/02/06 12:06:46;;;;;;;;;;;4.10;99.90;;;;;;4930468;28;20096;-68
2022/02/06 12:09:23;;;;;;;;;;;4.10;99.90;;;;;;4932490;28;20633;-64
2022/02/06 12:12:09;;;;;;;;;;;4.10;99.90;;;;;;4934648;28;19937;-65
2022/02/06 12:14:45;;;;;;;;;;;4.10;99.90;;;;;;4932910;28;19927;-68
2022/02/06 12:20:13;;;;;;;;;;;4.20;99.90;;;;;;4917880;28;20948;-64
2022/02/06 12:22:41;;;;;;;;;;;4.20;99.90;;;;;;4932312;28;19939;-67
2022/02/06 12:25:31;;;;;;;;;;;4.20;99.90;;;;;;4931684;28;20671;-63
2022/02/06 12:28:11;;;;;;;;;;;4.20;99.90;;;;;;4932807;28;20040;-63
2022/02/06 12:30:40;;;;;;;;;;;4.20;99.90;;;;;;4931775;28;20022;-68
2022/02/06 12:33:21;;;;;;;;;;;4.30;99.90;;;;;;4928093;28;19934;-65
2022/02/06 12:38:33;;;;;;;;;;;4.30;99.90;;;;;;4930382;28;20058;-66
2022/02/06 12:41:19;;;;;;;;;;;4.30;99.90;;;;;;4929108;28;20303;-66
2022/02/06 12:43:53;;;;;;;;;;;4.30;99.90;;;;;;4929511;28;20095;-65
2022/02/06 12:46:25;;;;;;;;;;;4.30;99.90;;;;;;4930898;28;20087;-67
2022/02/06 12:48:57;;;;;;;;;;;4.30;99.90;;;;;;4928531;28;20865;-64
2022/02/06 12:51:25;;;;;;;;;;;4.30;99.90;;;;;;4928105;28;19937;-64
2022/02/06 12:54:00;;;;;;;;;;;4.30;99.90;;;;;;4927296;28;20928;-65
2022/02/06 12:56:28;;;;;;;;;;;4.30;99.90;;;;;;4929640;28;20062;-65
2022/02/06 12:58:55;;;;;;;;;;;4.40;99.90;;;;;;4923094;28;20409;-67
2022/02/06 13:01:41;;;;;;;;;;;4.30;99.90;;;;;;4929762;28;19930;-65
2022/02/06 13:04:10;;;;;;;;;;;4.40;99.90;;;;;;4928601;28;19930;-64
2022/02/06 13:06:39;;;;;;;;;;;4.40;99.90;;;;;;4932216;28;20000;-68
2022/02/06 13:09:16;;;;;;;;;;;4.30;99.90;;;;;;4929084;28;19929;-65
2022/02/06 13:11:44;;;;;;;;;;;4.30;99.90;;;;;;4932146;28;19973;-68
2022/02/06 13:16:58;;;;;;;;;;;4.30;99.90;;;;;;4934914;28;19936;-68
2022/02/06 13:19:46;;;;;;;;;;;4.30;99.90;;;;;;4930168;28;19933;-65
2022/02/06 13:23:25;;;;;;;;;;;4.30;99.90;;;;;;4935538;28;20056;-63
2022/02/06 13:36:44;;;;;;;;;;;4.20;99.90;;;;;;4935048;28;19936;-66
2022/02/06 13:39:19;;;;;;;;;;;4.10;99.90;;;;;;4931328;28;20021;-65
2022/02/06 13:41:45;;;;;;;;;;;4.20;99.90;;;;;;4933746;28;20156;-64
2022/02/06 13:44:24;;;;;;;;;;;4.20;99.90;;;;;;3712756;28;10022810;-67
2022/02/06 13:46:54;;;;;;;;;;;4.20;99.90;;;;;;2382883;28;10002134;-65
2022/02/06 13:49:24;;;;;;;;;;;4.10;99.90;;;;;;4930831;28;20393;-66
2022/02/06 13:51:51;;;;;;;;;;;4.10;99.90;;;;;;4934299;28;19977;-68
2022/02/06 13:54:19;;;;;;;;;;;4.10;99.90;;;;;;4932702;28;19938;-67
2022/02/06 13:56:54;;;;;;;;;;;4.10;99.90;;;;;;4932109;28;20010;-64
2022/02/06 13:59:22;;;;;;;;;;;4.10;99.90;;;;;;4931813;28;19927;-65
2022/02/06 14:01:52;;;;;;;;;;;4.00;99.90;;;;;;4929107;28;19937;-67
2022/02/06 14:04:28;;;;;;;;;;;4.00;99.90;;;;;;4933640;28;19993;-67
2022/02/06 14:07:05;;;;;;;;;;;4.00;99.90;;;;;;4924869;28;19930;-69
2022/02/06 14:12:20;;;;;;;;;;;4.00;99.90;;;;;;4930593;28;19930;-66
2022/02/06 14:14:49;;;;;;;;;;;3.90;99.90;;;;;;4929984;28;22091;-67
2022/02/06 14:17:30;;;;;;;;;;;3.90;99.90;;;;;;4929218;28;19930;-67
2022/02/06 14:19:59;;;;;;;;;;;3.90;99.90;;;;;;4931074;28;19931;-65
2022/02/06 14:22:29;;;;;;;;;;;3.80;99.90;;;;;;4929179;28;19931;-67
2022/02/06 14:24:57;;;;;;;;;;;3.80;99.90;;;;;;4933279;28;19982;-65
2022/02/06 14:27:32;;;;;;;;;;;3.80;99.90;;;;;;4951738;28;20096;-67
2022/02/06 14:30:08;;;;;;;;;;;3.70;99.90;;;;;;4933308;28;19931;-75
2022/02/06 14:32:36;;;;;;;;;;;3.70;99.90;;;;;;4935576;28;19927;-65
2022/02/06 14:35:07;;;;;;;;;;;3.60;99.90;;;;;;4931232;28;20589;-66
2022/02/06 14:37:46;;;;;;;;;;;3.60;99.90;;;;;;4936244;28;19931;-65
2022/02/06 14:40:28;;;;;;;;;;;3.60;99.90;;;;;;4931369;28;19982;-65
2022/02/06 14:42:57;;;;;;;;;;;3.50;99.90;;;;;;4932020;28;20300;-69
2022/02/06 14:45:24;;;;;;;;;;;3.50;99.90;;;;;;4933330;28;20029;-67
2022/02/06 14:47:52;;;;;;;;;;;3.50;99.90;;;;;;4934875;28;20333;-66
2022/02/06 14:50:20;;;;;;;;;;;3.40;99.90;;;;;;4936679;28;19997;-69
2022/02/06 14:52:47;;;;;;;;;;;3.40;99.90;;;;;;4932861;28;19936;-67
2022/02/06 14:55:14;;;;;;;;;;;3.40;99.90;;;;;;4934626;28;19926;-67
2022/02/06 14:57:41;;;;;;;;;;;3.40;99.90;;;;;;4934636;28;19929;-69
2022/02/06 15:00:09;;;;;;;;;;;3.30;99.90;;;;;;4935702;28;19981;-63
2022/02/06 15:02:36;;;;;;;;;;;3.30;99.90;;;;;;4934268;28;19930;-66
2022/02/06 15:05:03;;;;;;;;;;;3.30;99.90;;;;;;4931740;28;20400;-66
2022/02/06 15:07:31;;;;;;;;;;;3.20;99.90;;;;;;4934735;28;20017;-68
2022/02/06 15:09:58;;;;;;;;;;;3.20;99.90;;;;;;4934091;28;19936;-69
2022/02/06 15:12:24;;;;;;;;;;;3.20;99.90;;;;;;4933480;28;20395;-66
2022/02/06 15:14:54;;;;;;;;;;;3.20;99.90;;;;;;4933528;28;19981;-64
2022/02/06 15:17:22;;;;;;;;;;;3.10;99.90;;;;;;4929922;28;20388;-66
2022/02/06 15:19:49;;;;;;;;;;;3.10;99.90;;;;;;4934961;28;20020;-66
2022/02/06 15:22:16;;;;;;;;;;;3.10;99.90;;;;;;4930586;28;20024;-70
2022/02/06 15:24:43;;;;;;;;;;;3.00;99.90;;;;;;4931919;28;20667;-65
2022/02/06 15:27:10;;;;;;;;;;;3.00;99.90;;;;;;4930513;28;20012;-65
2022/02/06 15:29:36;;;;;;;;;;;2.90;99.90;;;;;;4933548;28;20025;-68
2022/02/06 15:32:04;;;;;;;;;;;2.90;99.90;;;;;;4931444;28;19931;-65
2022/02/06 15:34:32;;;;;;;;;;;2.90;99.90;;;;;;4931313;28;19936;-66
2022/02/06 15:37:02;;;;;;;;;;;2.80;99.90;;;;;;4932782;28;19930;-65
2022/02/06 15:39:37;;;;;;;;;;;2.90;99.90;;;;;;4934316;28;20017;-67
2022/02/06 15:42:05;;;;;;;;;;;2.80;99.90;;;;;;4934255;28;19931;-63
2022/02/06 15:44:51;;;;;;;;;;;2.80;99.90;;;;;;2901046;28;10002140;-67
2022/02/06 15:47:18;;;;;;;;;;;2.80;99.90;;;;;;3571002;28;10001317;-69
2022/02/06 15:49:45;;;;;;;;;;;2.80;99.90;;;;;;4933227;28;20005;-65
2022/02/06 15:52:12;;;;;;;;;;;2.80;99.90;;;;;;4932118;28;21067;-64
2022/02/06 15:54:39;;;;;;;;;;;2.80;99.90;;;;;;4935393;28;20033;-64
2022/02/06 15:57:06;;;;;;;;;;;2.90;99.90;;;;;;4931916;28;20359;-65
2022/02/06 15:59:33;;;;;;;;;;;2.80;99.90;;;;;;4935411;28;20400;-66
2022/02/06 16:01:59;;;;;;;;;;;2.90;99.90;;;;;;4933935;28;20430;-65
2022/02/06 16:04:26;;;;;;;;;;;2.90;99.90;;;;;;4934179;28;20085;-64
2022/02/06 16:06:55;;;;;;;;;;;2.90;99.90;;;;;;4930840;28;19930;-65
2022/02/06 16:09:28;;;;;;;;;;;2.90;99.90;;;;;;4930942;28;20115;-64
2022/02/06 16:11:55;;;;;;;;;;;2.90;99.90;;;;;;4932838;28;20572;-66
2022/02/06 16:14:22;;;;;;;;;;;2.90;99.90;;;;;;4932109;28;19927;-66
2022/02/06 16:16:49;;;;;;;;;;;2.90;99.90;;;;;;4930031;28;20025;-66
2022/02/06 16:19:16;;;;;;;;;;;2.90;99.90;;;;;;4931725;28;19993;-66
2022/02/06 16:21:43;;;;;;;;;;;2.90;99.90;;;;;;4931546;28;19936;-67
2022/02/06 16:24:10;;;;;;;;;;;2.90;99.90;;;;;;4928145;28;20036;-67
2022/02/06 16:26:40;;;;;;;;;;;2.90;99.90;;;;;;4932713;28;20045;-68
2022/02/06 16:29:07;;;;;;;;;;;2.90;99.90;;;;;;4931125;28;19937;-67
2022/02/06 16:31:34;;;;;;;;;;;2.90;99.90;;;;;;4928957;28;20456;-71
2022/02/06 16:34:01;;;;;;;;;;;2.90;99.90;;;;;;4932939;28;19956;-66
2022/02/06 16:36:28;;;;;;;;;;;2.90;99.90;;;;;;4931311;28;19930;-67
2022/02/06 16:38:55;;;;;;;;;;;2.90;99.90;;;;;;4929659;28;20391;-67
2022/02/06 16:41:22;;;;;;;;;;;2.90;99.90;;;;;;4934675;28;20057;-64
2022/02/06 16:43:49;;;;;;;;;;;2.90;99.90;;;;;;4931295;28;19935;-66
2022/02/06 16:46:16;;;;;;;;;;;2.90;99.90;;;;;;4933303;28;19938;-68
2022/02/06 16:48:43;;;;;;;;;;;2.90;99.90;;;;;;4930234;28;19937;-64
2022/02/06 16:51:11;;;;;;;;;;;2.90;99.90;;;;;;4933852;28;20885;-68
2022/02/06 16:53:38;;;;;;;;;;;2.90;99.90;;;;;;4932462;28;20037;-65
2022/02/06 16:56:05;;;;;;;;;;;3.00;99.90;;;;;;4932517;28;20385;-67
2022/02/06 16:58:32;;;;;;;;;;;3.10;99.90;;;;;;4932504;28;19931;-68
2022/02/06 17:00:59;;;;;;;;;;;3.10;99.90;;;;;;4931182;28;19934;-65
2022/02/06 17:03:26;;;;;;;;;;;3.10;99.90;;;;;;4930939;28;19930;-64
2022/02/06 17:05:59;;;;;;;;;;;3.10;99.90;;;;;;4934235;28;20031;-66
2022/02/06 17:08:25;;;;;;;;;;;3.20;99.90;;;;;;4933063;28;19930;-64
2022/02/06 17:10:52;;;;;;;;;;;3.20;99.90;;;;;;4929220;28;19949;-69
2022/02/06 17:13:20;;;;;;;;;;;3.30;99.90;;;;;;4931082;28;21362;-66
2022/02/06 17:15:47;;;;;;;;;;;3.20;99.90;;;;;;4932705;28;19929;-64
2022/02/06 17:18:14;;;;;;;;;;;3.30;99.90;;;;;;4933140;28;19970;-65
2022/02/06 17:20:41;;;;;;;;;;;3.30;99.90;;;;;;4930826;28;19995;-68
2022/02/06 17:23:12;;;;;;;;;;;3.30;99.90;;;;;;4927329;28;20368;-67
2022/02/06 17:25:39;;;;;;;;;;;3.40;99.90;;;;;;4944729;28;20046;-70
2022/02/06 17:28:06;;;;;;;;;;;3.40;99.90;;;;;;4927586;28;20041;-65
2022/02/06 17:30:33;;;;;;;;;;;3.40;99.90;;;;;;4932957;28;20651;-68
2022/02/06 17:33:00;;;;;;;;;;;3.40;99.90;;;;;;4930678;28;19931;-65